createdAt,value
2023-08-26T00:00:15.995Z,1016.607856
2023-08-26T00:05:16.921Z,1016.588203
2023-08-26T00:10:15.817Z,1016.748139
2023-08-26T00:15:15.818Z,1016.729533
2023-08-26T00:20:15.991Z,1016.789794
2023-08-26T00:25:16.831Z,1016.811418
2023-08-26T00:30:16.909Z,1016.912958
2023-08-26T00:35:15.763Z,1016.872814
2023-08-26T00:40:16.667Z,1016.935714
2023-08-26T00:45:17.173Z,1016.877016
2023-08-26T00:50:16.007Z,1016.917307
2023-08-26T00:55:16.237Z,1016.996280
2023-08-26T01:00:15.762Z,1017.015930
2023-08-26T01:05:16.324Z,1016.974151
2023-08-26T01:10:17.131Z,1017.037187
2023-08-26T01:15:16.297Z,1016.997878
2023-08-26T01:20:15.818Z,1016.977306
2023-08-26T01:25:16.646Z,1016.999788
2023-08-26T01:30:15.728Z,1016.960463
2023-08-26T01:35:17.193Z,1016.960578
2023-08-26T01:40:15.917Z,1016.981596
2023-08-26T01:45:16.215Z,1017.082891
2023-08-26T01:50:16.353Z,1017.165626
2023-08-26T01:55:16.444Z,1017.205851
2023-08-26T02:00:15.980Z,1017.225280
2023-08-26T02:05:15.793Z,1017.162749
2023-08-26T02:10:16.048Z,1017.145742
2023-08-26T02:15:17.163Z,1017.124612
2023-08-26T02:20:15.803Z,1017.142572
2023-08-26T02:25:16.343Z,1017.185647
2023-08-26T02:30:16.094Z,1017.107803
2023-08-26T02:35:15.705Z,1017.146106
2023-08-26T02:40:16.516Z,1017.284417
2023-08-26T02:45:15.952Z,1017.305133
2023-08-26T02:50:16.396Z,1017.347530
2023-08-26T02:55:15.786Z,1017.327625
2023-08-26T03:00:16.097Z,1017.392284
2023-08-26T03:05:15.748Z,1017.433805
2023-08-26T03:10:16.599Z,1017.453910
2023-08-26T03:15:15.974Z,1017.511983
2023-08-26T03:20:15.922Z,1017.490183
2023-08-26T03:25:15.896Z,1017.430354
2023-08-26T03:30:15.956Z,1017.410500
2023-08-26T03:35:15.827Z,1017.450426
2023-08-26T03:40:17.305Z,1017.429743
2023-08-26T03:45:16.109Z,1017.369543
2023-08-26T03:50:15.905Z,1017.389448
2023-08-26T03:55:15.720Z,1017.447732
2023-08-26T04:00:15.632Z,1017.446630
2023-08-26T04:05:16.121Z,1017.426379
2023-08-26T04:10:16.258Z,1017.408099
2023-08-26T04:15:16.054Z,1017.412063
2023-08-26T04:20:15.992Z,1017.393672
2023-08-26T04:25:16.478Z,1017.455431
2023-08-26T04:30:15.896Z,1017.518051
2023-08-26T04:35:16.094Z,1017.561286
2023-08-26T04:40:16.833Z,1017.543710
2023-08-26T04:45:15.850Z,1017.624039
2023-08-26T04:50:16.188Z,1017.664695
2023-08-26T04:55:15.802Z,1017.585450
2023-08-26T05:00:15.876Z,1017.605369
2023-08-26T05:05:16.040Z,1017.625669
2023-08-26T05:10:16.312Z,1017.546769
2023-08-26T05:15:16.110Z,1017.546861
2023-08-26T05:20:16.601Z,1017.586858
2023-08-26T05:25:16.157Z,1017.647848
2023-08-26T05:30:16.018Z,1017.588127
2023-08-26T05:35:16.817Z,1017.567606
2023-08-26T05:40:17.159Z,1017.588257
2023-08-26T05:45:16.779Z,1017.647717
2023-08-26T05:50:16.727Z,1017.647799
2023-08-26T05:55:16.377Z,1017.608503
2023-08-26T06:00:17.026Z,1017.627854
2023-08-26T06:05:15.775Z,1017.649027
2023-08-26T06:10:15.896Z,1017.669369
2023-08-26T06:15:16.184Z,1017.728490
2023-08-26T06:20:16.561Z,1017.669847
2023-08-26T06:25:15.724Z,1017.670272
2023-08-26T06:30:16.068Z,1017.730954
2023-08-26T06:35:16.329Z,1017.731013
2023-08-26T06:40:17.567Z,1017.731101
2023-08-26T06:45:16.312Z,1017.751527
2023-08-26T06:50:15.815Z,1017.731628
2023-08-26T06:55:16.492Z,1017.651653
2023-08-26T07:00:16.463Z,1017.751825
2023-08-26T07:05:15.875Z,1017.771870
2023-08-26T07:10:15.728Z,1017.811795
2023-08-26T07:15:16.049Z,1017.852124
2023-08-26T07:20:15.804Z,1017.811969
2023-08-26T07:25:15.784Z,1017.771952
2023-08-26T07:30:16.186Z,1017.792375
2023-08-26T07:35:15.719Z,1017.832003
2023-08-26T07:40:15.908Z,1017.832260
2023-08-26T07:45:16.663Z,1017.854336
2023-08-26T07:50:15.807Z,1017.896884
2023-08-26T07:55:16.634Z,1018.017955
2023-08-26T08:00:17.034Z,1018.038347
2023-08-26T08:05:15.857Z,1018.038109
2023-08-26T08:10:15.830Z,1018.018689
2023-08-26T08:15:16.471Z,1018.058805
2023-08-26T08:20:16.274Z,1018.019230
2023-08-26T08:25:15.892Z,1017.998981
2023-08-26T08:30:16.186Z,1018.038838
2023-08-26T08:35:16.226Z,1018.077973
2023-08-26T08:40:15.864Z,1018.137963
2023-08-26T08:45:15.730Z,1018.138316
2023-08-26T08:50:16.946Z,1018.117790
2023-08-26T08:55:15.734Z,1018.137286
2023-08-26T09:00:15.941Z,1018.137592
2023-08-26T09:05:15.757Z,1018.118095
2023-08-26T09:10:16.504Z,1018.198587
2023-08-26T09:15:15.826Z,1018.238334
2023-08-26T09:20:16.989Z,1018.138387
2023-08-26T09:25:15.935Z,1018.157746
2023-08-26T09:30:17.644Z,1018.177972
2023-08-26T09:35:17.409Z,1018.138231
2023-08-26T09:40:17.298Z,1018.158025
2023-08-26T09:45:16.246Z,1018.137486
2023-08-26T09:50:16.902Z,1018.178451
2023-08-26T09:55:16.607Z,1018.258292
2023-08-26T10:00:15.830Z,1018.158388
2023-08-26T10:05:15.969Z,1018.178276
2023-08-26T10:10:16.479Z,1018.179340
2023-08-26T10:15:16.737Z,1018.221925
2023-08-26T10:20:17.196Z,1018.279568
2023-08-26T10:25:16.163Z,1018.260415
2023-08-26T10:30:15.960Z,1018.262931
2023-08-26T10:35:16.831Z,1018.241089
2023-08-26T10:40:16.709Z,1018.320536
2023-08-26T10:45:15.804Z,1018.380152
2023-08-26T10:50:16.761Z,1018.400449
2023-08-26T10:55:16.321Z,1018.262845
2023-08-26T11:00:16.946Z,1018.262349
2023-08-26T11:05:15.904Z,1018.260669
2023-08-26T11:10:15.871Z,1018.241849
2023-08-26T11:15:16.380Z,1018.162487
2023-08-26T11:20:16.584Z,1018.182183
2023-08-26T11:25:16.714Z,1018.262598
2023-08-26T11:30:16.372Z,1018.242341
2023-08-26T11:35:15.841Z,1018.242135
2023-08-26T11:40:15.803Z,1018.241577
2023-08-26T11:45:15.801Z,1018.343396
2023-08-26T11:50:16.341Z,1018.305361
2023-08-26T11:55:16.433Z,1018.286153
2023-08-26T12:00:16.218Z,1018.284270
2023-08-26T12:05:16.523Z,1018.323967
2023-08-26T12:10:16.692Z,1018.343995
2023-08-26T12:15:15.751Z,1018.323444
2023-08-26T12:20:15.971Z,1018.363557
2023-08-26T12:25:15.940Z,1018.363996
2023-08-26T12:30:15.720Z,1018.364039
2023-08-26T12:35:15.791Z,1018.363317
2023-08-26T12:40:16.283Z,1018.383972
2023-08-26T12:45:16.895Z,1018.383967
2023-08-26T12:50:16.732Z,1018.402995
2023-08-26T12:55:15.818Z,1018.464011
2023-08-26T13:00:16.031Z,1018.464289
2023-08-26T13:05:15.943Z,1018.484403
2023-08-26T13:10:16.429Z,1018.526228
2023-08-26T13:15:16.737Z,1018.566279
2023-08-26T13:20:15.765Z,1018.586077
2023-08-26T13:25:16.084Z,1018.546176
2023-08-26T13:30:16.376Z,1018.566174
2023-08-26T13:35:17.409Z,1018.545660
2023-08-26T13:40:15.755Z,1018.525435
2023-08-26T13:45:15.674Z,1018.525533
2023-08-26T13:50:15.838Z,1018.565299
2023-08-26T13:55:15.894Z,1018.604525
2023-08-26T14:00:16.397Z,1018.624630
2023-08-26T14:05:16.128Z,1018.544376
2023-08-26T14:10:16.071Z,1018.586093
2023-08-26T14:15:15.883Z,1018.547729
2023-08-26T14:20:15.904Z,1018.566005
2023-08-26T14:25:16.463Z,1018.605720
2023-08-26T14:30:15.836Z,1018.566897
2023-08-26T14:35:16.263Z,1018.566793
2023-08-26T14:40:15.912Z,1018.564993
2023-08-26T14:45:15.754Z,1018.623773
2023-08-26T14:50:16.875Z,1018.623350
2023-08-26T14:55:15.945Z,1018.640525
2023-08-26T15:00:16.212Z,1018.696081
2023-08-26T15:05:16.630Z,1018.674964
2023-08-26T15:10:15.943Z,1018.655573
2023-08-26T15:15:16.319Z,1018.594324
2023-08-26T15:20:16.391Z,1018.608295
2023-08-26T15:25:16.143Z,1018.626026
2023-08-26T15:30:16.079Z,1018.585355
2023-08-26T15:35:16.631Z,1018.523758
2023-08-26T15:40:16.444Z,1018.441102
2023-08-26T15:45:16.628Z,1018.414792
2023-08-26T15:50:16.202Z,1018.532404
2023-08-26T15:55:18.256Z,1018.631941
2023-08-26T16:00:16.394Z,1018.608439
2023-08-26T16:05:15.697Z,1018.526103
2023-08-26T16:10:16.291Z,1018.471824
2023-08-26T16:15:16.216Z,1018.298603
2023-08-26T16:20:16.493Z,1018.316597
2023-08-26T16:25:15.799Z,1018.392890
2023-08-26T16:30:16.195Z,1018.433647
2023-08-26T16:35:15.980Z,1018.474350
2023-08-26T16:40:16.465Z,1018.479114
2023-08-26T16:45:16.335Z,1018.540499
2023-08-26T16:50:15.772Z,1018.541410
2023-08-26T16:55:16.266Z,1018.500573
2023-08-26T17:00:16.002Z,1018.478817
2023-08-26T17:05:15.902Z,1018.420478
2023-08-26T17:10:16.193Z,1018.317792
2023-08-26T17:15:17.040Z,1018.271923
2023-08-26T17:20:16.910Z,1018.223921
2023-08-26T17:25:16.007Z,1018.200962
2023-08-26T17:30:15.808Z,1018.183391
2023-08-26T17:35:16.241Z,1018.062584
2023-08-26T17:40:16.102Z,1017.980523
2023-08-26T17:45:16.256Z,1017.963128
2023-08-26T17:50:16.904Z,1017.861240
2023-08-26T17:55:17.136Z,1017.883140
2023-08-26T18:00:15.987Z,1017.867050
2023-08-26T18:05:15.954Z,1017.902509
2023-08-26T18:10:16.003Z,1017.839375
2023-08-26T18:15:15.906Z,1017.779396
2023-08-26T18:20:15.862Z,1017.740008
2023-08-26T18:25:16.381Z,1017.697358
2023-08-26T18:30:16.767Z,1017.638939
2023-08-26T18:35:15.764Z,1017.580755
2023-08-26T18:40:16.434Z,1017.582695
2023-08-26T18:45:16.799Z,1017.499562
2023-08-26T18:50:16.139Z,1017.396977
2023-08-26T18:55:16.083Z,1017.376733
2023-08-26T19:00:16.323Z,1017.291643
2023-08-26T19:05:15.711Z,1017.272080
2023-08-26T19:10:16.010Z,1017.231559
2023-08-26T19:15:16.103Z,1017.252714
2023-08-26T19:20:16.472Z,1017.211796
2023-08-26T19:25:18.452Z,1017.212054
2023-08-26T19:30:16.737Z,1017.254115
2023-08-26T19:35:15.748Z,1017.293076
2023-08-26T19:40:15.715Z,1017.235003
2023-08-26T19:45:16.662Z,1017.210030
2023-08-26T19:50:16.080Z,1017.150649
2023-08-26T19:55:16.143Z,1017.091666
2023-08-26T20:00:16.001Z,1016.969903
2023-08-26T20:05:16.918Z,1016.888297
2023-08-26T20:10:16.148Z,1016.885879
2023-08-26T20:15:16.278Z,1016.864663
2023-08-26T20:20:15.754Z,1016.806999
2023-08-26T20:25:15.756Z,1016.682944
2023-08-26T20:30:16.317Z,1016.642837
2023-08-26T20:35:16.654Z,1016.523391
2023-08-26T20:40:16.047Z,1016.465026
2023-08-26T20:45:15.882Z,1016.404291
2023-08-26T20:50:16.482Z,1016.384995
2023-08-26T20:55:15.901Z,1016.342940
2023-08-26T21:00:15.808Z,1016.336848
2023-08-26T21:05:15.739Z,1016.372735
2023-08-26T21:10:15.783Z,1016.379015
2023-08-26T21:15:17.362Z,1016.320758
2023-08-26T21:20:15.784Z,1016.241548
2023-08-26T21:25:16.315Z,1016.118844
2023-08-26T21:30:16.663Z,1016.198024
2023-08-26T21:35:15.870Z,1016.178704
2023-08-26T21:40:16.530Z,1016.137874
2023-08-26T21:45:16.859Z,1016.157442
2023-08-26T21:50:16.157Z,1016.096308
2023-08-26T21:55:15.573Z,1016.076047
2023-08-26T22:00:15.872Z,1015.995294
2023-08-26T22:05:15.922Z,1015.934882
2023-08-26T22:10:16.182Z,1015.874878
2023-08-26T22:15:15.923Z,1015.834252
2023-08-26T22:20:15.754Z,1015.772683
2023-08-26T22:25:16.387Z,1015.692632
2023-08-26T22:30:15.742Z,1015.631435
2023-08-26T22:35:17.102Z,1015.591037
2023-08-26T22:40:16.405Z,1015.508989
2023-08-26T22:45:15.849Z,1015.471358
2023-08-26T22:50:16.821Z,1015.448883
2023-08-26T22:55:15.686Z,1015.450091
2023-08-26T23:00:16.385Z,1015.449139
2023-08-26T23:05:15.754Z,1015.389451
2023-08-26T23:10:17.309Z,1015.308820
2023-08-26T23:15:16.400Z,1015.288033
2023-08-26T23:20:16.459Z,1015.209206
2023-08-26T23:25:15.928Z,1015.148386
2023-08-26T23:30:16.426Z,1015.127133
2023-08-26T23:35:15.853Z,1015.107201
2023-08-26T23:40:16.346Z,1015.065309
2023-08-26T23:45:15.977Z,1015.086942
2023-08-26T23:50:15.769Z,1015.026269
2023-08-26T23:55:15.892Z,1014.985378
